createdAt,value
2018-04-07T00:00:09.119Z,4.43
2018-04-07T00:02:36.647Z,4.50
2018-04-07T00:05:04.181Z,4.53
2018-04-07T00:07:31.694Z,4.80
2018-04-07T00:09:59.209Z,4.37
2018-04-07T00:12:26.721Z,4.30
2018-04-07T00:14:54.238Z,4.27
2018-04-07T00:17:21.749Z,4.23
2018-04-07T00:19:49.377Z,4.67
2018-04-07T00:22:16.913Z,4.57
2018-04-07T00:24:44.443Z,4.73
2018-04-07T00:27:11.957Z,4.53
2018-04-07T00:29:39.486Z,4.23
2018-04-07T00:32:07.087Z,4.63
2018-04-07T00:34:34.601Z,4.17
2018-04-07T00:37:02.123Z,4.30
2018-04-07T00:39:29.637Z,4.00
2018-04-07T00:41:57.151Z,4.33
2018-04-07T00:44:24.682Z,4.40
2018-04-07T00:46:52.204Z,4.23
2018-04-07T00:49:19.834Z,4.43
2018-04-07T00:51:47.348Z,4.10
2018-04-07T00:54:14.857Z,4.23
2018-04-07T00:56:42.382Z,4.57
2018-04-07T00:59:09.916Z,4.53
2018-04-07T01:01:37.456Z,4.43
2018-04-07T01:04:04.981Z,4.37
2018-04-07T01:06:32.501Z,4.77
2018-04-07T01:09:00.083Z,3.93
2018-04-07T01:11:27.643Z,4.30
2018-04-07T01:13:55.160Z,5.13
2018-04-07T01:16:22.758Z,3.63
2018-04-07T01:18:50.286Z,4.27
2018-04-07T01:21:17.880Z,3.90
2018-04-07T01:23:45.405Z,4.00
2018-04-07T01:26:12.918Z,3.90
2018-04-07T01:28:40.424Z,3.70
2018-04-07T01:31:07.940Z,4.10
2018-04-07T01:33:35.449Z,4.67
2018-04-07T01:36:02.958Z,4.80
2018-04-07T01:38:30.480Z,3.80
2018-04-07T01:40:58.009Z,4.97
2018-04-07T01:43:25.526Z,3.93
2018-04-07T01:45:53.037Z,4.23
2018-04-07T01:48:20.560Z,4.33
2018-04-07T01:50:48.089Z,4.13
2018-04-07T01:53:15.629Z,4.40
2018-04-07T01:55:43.136Z,4.00
2018-04-07T01:58:10.663Z,4.53
2018-04-07T02:00:38.193Z,4.03
2018-04-07T02:03:05.706Z,4.40
2018-04-07T02:05:33.214Z,5.10
2018-04-07T02:08:00.734Z,4.07
2018-04-07T02:10:28.256Z,4.40
2018-04-07T02:12:55.790Z,4.10
2018-04-07T02:15:23.309Z,4.60
2018-04-07T02:17:50.840Z,4.83
2018-04-07T02:20:18.358Z,4.77
2018-04-07T02:22:45.961Z,4.83
2018-04-07T02:25:13.480Z,4.50
2018-04-07T02:27:41.080Z,5.30
2018-04-07T02:30:08.593Z,4.33
2018-04-07T02:32:36.128Z,4.47
2018-04-07T02:35:03.641Z,3.90
2018-04-07T02:37:31.196Z,4.20
2018-04-07T02:39:58.703Z,4.60
2018-04-07T02:42:26.261Z,4.33
2018-04-07T02:44:53.781Z,4.43
2018-04-07T02:47:21.298Z,4.90
2018-04-07T02:49:48.916Z,5.10
2018-04-07T02:52:16.440Z,4.93
2018-04-07T02:54:43.957Z,4.20
2018-04-07T02:57:11.489Z,4.80
2018-04-07T02:59:39.017Z,4.87
2018-04-07T03:02:06.567Z,4.63
2018-04-07T03:04:34.087Z,5.17
2018-04-07T03:07:01.616Z,5.57
2018-04-07T03:09:29.190Z,5.33
2018-04-07T03:11:56.710Z,5.23
2018-04-07T03:14:24.234Z,5.00
2018-04-07T03:16:51.751Z,5.40
2018-04-07T03:19:19.267Z,4.97
2018-04-07T03:21:46.814Z,4.97
2018-04-07T03:24:14.342Z,6.10
2018-04-07T03:26:41.863Z,5.13
2018-04-07T03:29:09.465Z,5.43
2018-04-07T03:31:36.995Z,5.00
2018-04-07T03:34:04.519Z,5.63
2018-04-07T03:36:32.132Z,5.83
2018-04-07T03:38:59.662Z,5.40
2018-04-07T03:41:27.186Z,5.40
2018-04-07T03:43:54.823Z,5.57
2018-04-07T03:46:22.369Z,5.50
2018-04-07T03:48:49.906Z,6.07
2018-04-07T03:51:17.424Z,5.23
2018-04-07T03:53:45.048Z,5.50
2018-04-07T03:56:12.628Z,6.07
2018-04-07T03:58:40.141Z,5.97
2018-04-07T04:01:07.728Z,5.50
2018-04-07T04:03:35.258Z,5.67
2018-04-07T04:06:02.831Z,5.63
2018-04-07T04:08:30.348Z,5.33
2018-04-07T04:10:57.865Z,6.17
2018-04-07T04:13:25.384Z,6.30
2018-04-07T04:15:52.921Z,6.53
2018-04-07T04:18:20.435Z,6.13
2018-04-07T04:20:47.945Z,6.23
2018-04-07T04:23:15.577Z,5.60
2018-04-07T04:25:43.141Z,5.53
2018-04-07T04:28:10.657Z,5.60
2018-04-07T04:30:38.192Z,5.70
2018-04-07T04:33:05.705Z,5.73
2018-04-07T04:35:33.265Z,6.20
2018-04-07T04:38:00.773Z,5.83
2018-04-07T04:40:28.281Z,6.13
2018-04-07T04:42:55.792Z,6.17
2018-04-07T04:45:23.318Z,5.63
2018-04-07T04:47:50.845Z,6.80
2018-04-07T04:50:18.366Z,6.20
2018-04-07T04:52:45.877Z,6.37
2018-04-07T04:55:13.398Z,6.30
2018-04-07T04:57:40.929Z,6.00
2018-04-07T05:00:08.441Z,6.50
2018-04-07T05:02:35.996Z,6.60
2018-04-07T05:05:03.509Z,6.93
2018-04-07T05:07:31.030Z,6.70
2018-04-07T05:09:58.557Z,7.50
2018-04-07T05:12:26.082Z,7.67
2018-04-07T05:14:53.597Z,7.10
2018-04-07T05:17:21.149Z,7.23
2018-04-07T05:19:48.710Z,7.53
2018-04-07T05:22:16.286Z,7.17
2018-04-07T05:24:43.813Z,6.63
2018-04-07T05:27:11.356Z,7.00
2018-04-07T05:29:38.968Z,6.87
2018-04-07T05:32:06.488Z,6.90
2018-04-07T05:34:34.411Z,6.83
2018-04-07T05:37:01.941Z,7.27
2018-04-07T05:39:29.461Z,6.80
2018-04-07T05:41:56.973Z,6.70
2018-04-07T05:44:24.522Z,7.00
2018-04-07T05:46:52.111Z,6.97
2018-04-07T05:49:19.634Z,7.57
2018-04-07T05:51:47.158Z,6.60
2018-04-07T05:54:14.669Z,6.37
2018-04-07T05:56:42.213Z,7.07
2018-04-07T05:59:09.809Z,6.43
2018-04-07T06:01:37.336Z,8.20
2018-04-07T06:04:04.871Z,7.63
2018-04-07T06:06:32.393Z,7.63
2018-04-07T06:08:59.914Z,7.20
2018-04-07T06:11:27.445Z,6.70
2018-04-07T06:13:55.001Z,8.10
2018-04-07T06:16:22.526Z,7.83
2018-04-07T06:18:50.061Z,7.47
2018-04-07T06:21:17.579Z,7.43
2018-04-07T06:23:45.196Z,7.50
2018-04-07T06:26:12.732Z,7.27
2018-04-07T06:28:40.286Z,8.03
2018-04-07T06:31:07.817Z,7.27
2018-04-07T06:33:35.441Z,8.13
2018-04-07T06:36:02.965Z,7.43
2018-04-07T06:38:30.534Z,7.07
2018-04-07T06:40:58.055Z,7.57
2018-04-07T06:43:25.601Z,8.37
2018-04-07T06:45:53.140Z,7.23
2018-04-07T06:48:20.664Z,8.17
2018-04-07T06:50:48.227Z,7.37
2018-04-07T06:53:15.827Z,6.70
2018-04-07T06:55:43.374Z,7.50
2018-04-07T06:58:10.906Z,7.73
2018-04-07T07:00:38.441Z,7.43
2018-04-07T07:03:05.969Z,6.83
2018-04-07T07:05:33.481Z,7.67
2018-04-07T07:08:00.997Z,7.00
2018-04-07T07:10:28.518Z,8.23
2018-04-07T07:12:56.093Z,7.90
2018-04-07T07:15:23.757Z,7.47
2018-04-07T07:17:51.321Z,7.80
2018-04-07T07:20:18.876Z,7.00
2018-04-07T07:22:46.402Z,7.07
2018-04-07T07:25:13.926Z,6.97
2018-04-07T07:27:41.462Z,7.03
2018-04-07T07:30:08.981Z,7.00
2018-04-07T07:32:36.504Z,7.47
2018-04-07T07:35:04.033Z,6.53
2018-04-07T07:37:31.803Z,6.60
2018-04-07T07:39:59.352Z,6.77
2018-04-07T07:42:26.873Z,6.23
2018-04-07T07:44:54.405Z,6.20
2018-04-07T07:47:21.950Z,6.77
2018-04-07T07:49:49.596Z,6.53
2018-04-07T07:52:17.156Z,6.73
2018-04-07T07:54:44.715Z,6.60
2018-04-07T07:57:12.247Z,6.67
2018-04-07T07:59:39.803Z,6.93
2018-04-07T08:02:07.325Z,6.50
2018-04-07T08:04:34.857Z,6.57
2018-04-07T08:07:02.397Z,6.10
2018-04-07T08:09:29.926Z,6.70
2018-04-07T08:11:57.463Z,6.13
2018-04-07T08:14:25.026Z,6.97
2018-04-07T08:16:52.608Z,6.30
2018-04-07T08:19:20.142Z,6.00
2018-04-07T08:21:47.676Z,6.30
2018-04-07T08:24:15.199Z,6.40
2018-04-07T08:26:42.719Z,6.30
2018-04-07T08:29:10.252Z,6.50
2018-04-07T08:31:37.776Z,6.20
2018-04-07T08:34:05.297Z,6.60
2018-04-07T08:36:32.826Z,6.20
2018-04-07T08:39:00.349Z,6.63
2018-04-07T08:41:27.871Z,6.30
2018-04-07T08:43:55.389Z,6.23
2018-04-07T08:46:22.917Z,6.27
2018-04-07T08:48:50.454Z,6.33
2018-04-07T08:51:17.988Z,6.00
2018-04-07T08:53:45.511Z,6.07
2018-04-07T08:56:13.067Z,6.00
2018-04-07T08:58:40.665Z,5.80
2018-04-07T09:01:08.184Z,5.95
2018-04-07T09:03:35.704Z,5.87
2018-04-07T09:06:03.344Z,5.60
2018-04-07T09:08:30.901Z,5.57
2018-04-07T09:10:58.461Z,5.47
2018-04-07T09:13:25.986Z,6.28
2018-04-07T09:15:53.533Z,5.55
2018-04-07T09:18:21.062Z,5.87
2018-04-07T09:20:48.584Z,5.55
2018-04-07T09:23:16.109Z,5.65
2018-04-07T09:25:43.669Z,5.70
2018-04-07T09:28:11.218Z,5.70
2018-04-07T09:30:38.844Z,5.50
2018-04-07T09:33:06.394Z,5.57
2018-04-07T09:35:33.927Z,5.50
2018-04-07T09:38:01.459Z,5.37
2018-04-07T09:40:28.999Z,5.10
2018-04-07T09:42:56.522Z,5.30
2018-04-07T09:45:24.096Z,4.90
2018-04-07T09:47:51.622Z,5.95
2018-04-07T09:50:19.154Z,5.68
2018-04-07T09:52:46.675Z,5.68
2018-04-07T09:55:14.195Z,4.60
2018-04-07T09:57:41.750Z,4.97
2018-04-07T10:00:09.282Z,4.70
2018-04-07T10:02:36.806Z,4.90
2018-04-07T10:05:04.338Z,4.78
2018-04-07T10:07:31.883Z,4.85
2018-04-07T10:09:59.410Z,5.40
2018-04-07T10:12:26.951Z,5.00
2018-04-07T10:14:54.474Z,5.40
2018-04-07T10:17:21.997Z,5.03
2018-04-07T10:19:49.524Z,5.10
2018-04-07T10:22:17.053Z,5.10
2018-04-07T10:24:44.581Z,4.87
2018-04-07T10:27:12.104Z,5.30
2018-04-07T10:29:39.626Z,4.53
2018-04-07T10:32:07.152Z,4.80
2018-04-07T10:34:34.783Z,4.82
2018-04-07T10:37:03.137Z,5.60
2018-04-07T10:39:30.657Z,5.15
2018-04-07T10:41:58.270Z,5.15
2018-04-07T10:44:25.790Z,5.10
2018-04-07T10:46:53.330Z,4.57
2018-04-07T10:49:20.846Z,4.60
2018-04-07T10:51:48.377Z,4.18
2018-04-07T10:54:15.977Z,5.35
2018-04-07T10:56:43.494Z,4.83
2018-04-07T10:59:11.031Z,4.93
2018-04-07T11:01:38.554Z,4.93
2018-04-07T11:04:06.085Z,5.70
2018-04-07T11:06:33.611Z,4.83
2018-04-07T11:09:01.237Z,5.07
2018-04-07T11:11:28.828Z,4.90
2018-04-07T11:13:56.363Z,5.33
2018-04-07T11:16:23.889Z,5.17
2018-04-07T11:18:51.402Z,5.33
2018-04-07T11:21:18.935Z,5.30
2018-04-07T11:23:46.486Z,5.60
2018-04-07T11:26:14.004Z,5.57
2018-04-07T11:28:41.588Z,6.30
2018-04-07T11:31:09.102Z,5.00
2018-04-07T11:33:36.617Z,6.13
2018-04-07T11:36:04.142Z,5.20
2018-04-07T11:38:31.674Z,5.53
2018-04-07T11:40:59.206Z,5.87
2018-04-07T11:43:26.739Z,5.47
2018-04-07T11:45:54.281Z,5.17
2018-04-07T11:48:21.818Z,5.67
2018-04-07T11:50:49.346Z,5.77
2018-04-07T11:53:16.893Z,5.63
2018-04-07T11:55:44.400Z,5.67
2018-04-07T11:58:11.913Z,5.07
2018-04-07T12:00:39.442Z,5.57
2018-04-07T12:03:07.021Z,5.13
2018-04-07T12:05:34.536Z,4.77
2018-04-07T12:08:02.150Z,5.03
2018-04-07T12:10:29.671Z,5.20
2018-04-07T12:12:57.207Z,4.73
2018-04-07T12:15:24.739Z,5.37
2018-04-07T12:17:52.310Z,5.40
2018-04-07T12:20:19.848Z,5.07
2018-04-07T12:22:47.361Z,5.10
2018-04-07T12:25:14.876Z,4.57
2018-04-07T12:27:42.406Z,5.13
2018-04-07T12:30:09.929Z,5.00
2018-04-07T12:32:37.454Z,4.73
2018-04-07T12:35:04.986Z,4.90
2018-04-07T12:37:32.586Z,4.80
2018-04-07T12:40:00.112Z,4.87
2018-04-07T12:42:27.656Z,4.47
2018-04-07T12:44:55.245Z,5.10
2018-04-07T12:47:22.753Z,4.57
2018-04-07T12:49:50.378Z,4.67
2018-04-07T12:52:17.906Z,4.57
2018-04-07T12:54:45.421Z,4.60
2018-04-07T12:57:12.936Z,5.00
2018-04-07T12:59:40.455Z,4.73
2018-04-07T13:02:07.976Z,4.63
2018-04-07T13:04:35.498Z,4.43
2018-04-07T13:07:03.121Z,4.67
2018-04-07T13:09:30.608Z,4.90
2018-04-07T13:11:58.120Z,5.10
2018-04-07T13:14:25.633Z,4.23
2018-04-07T13:16:53.159Z,5.17
2018-04-07T13:19:20.684Z,4.30
2018-04-07T13:21:48.214Z,4.60
2018-04-07T13:24:15.757Z,4.30
2018-04-07T13:26:43.293Z,4.60
2018-04-07T13:29:10.809Z,4.00
2018-04-07T13:31:38.313Z,4.07
2018-04-07T13:34:05.872Z,4.60
2018-04-07T13:36:33.399Z,4.00
2018-04-07T13:39:00.917Z,4.13
2018-04-07T13:41:28.433Z,4.20
2018-04-07T13:43:56.084Z,4.33
2018-04-07T13:46:23.597Z,4.30
2018-04-07T13:48:51.158Z,4.00
2018-04-07T13:51:18.686Z,4.37
2018-04-07T13:53:46.206Z,3.80
2018-04-07T13:56:13.813Z,3.67
2018-04-07T13:58:41.446Z,4.20
2018-04-07T14:01:08.974Z,3.83
2018-04-07T14:03:36.517Z,4.37
2018-04-07T14:06:04.038Z,3.97
2018-04-07T14:08:31.558Z,4.67
2018-04-07T14:10:59.075Z,3.83
2018-04-07T14:13:26.594Z,3.40
2018-04-07T14:15:54.267Z,3.77
2018-04-07T14:18:21.789Z,3.93
2018-04-07T14:20:49.383Z,3.57
2018-04-07T14:23:16.896Z,3.70
2018-04-07T14:25:44.422Z,3.90
2018-04-07T14:28:11.945Z,3.53
2018-04-07T14:30:39.487Z,4.13
2018-04-07T14:33:07.006Z,3.47
2018-04-07T14:35:34.522Z,3.73
2018-04-07T14:38:02.033Z,4.33
2018-04-07T14:40:29.556Z,3.87
2018-04-07T14:42:57.137Z,4.20
2018-04-07T14:45:24.660Z,4.00
2018-04-07T14:47:52.234Z,4.00
2018-04-07T14:50:19.789Z,3.83
2018-04-07T14:52:47.301Z,4.00
2018-04-07T14:55:14.846Z,4.00
2018-04-07T14:57:42.372Z,3.87
2018-04-07T15:00:09.936Z,4.33
2018-04-07T15:02:37.457Z,4.10
2018-04-07T15:05:04.992Z,3.83
2018-04-07T15:07:32.505Z,4.00
2018-04-07T15:10:00.065Z,3.90
2018-04-07T15:12:27.603Z,4.13
2018-04-07T15:14:55.125Z,4.10
2018-04-07T15:17:22.652Z,4.20
2018-04-07T15:19:50.270Z,4.00
2018-04-07T15:22:17.779Z,4.13
2018-04-07T15:24:45.295Z,4.70
2018-04-07T15:27:12.809Z,4.00
2018-04-07T15:29:40.324Z,4.13
2018-04-07T15:32:07.856Z,4.40
2018-04-07T15:34:35.389Z,4.63
2018-04-07T15:37:02.903Z,4.50
2018-04-07T15:39:30.437Z,4.47
2018-04-07T15:41:57.961Z,4.20
2018-04-07T15:44:25.514Z,4.40
2018-04-07T15:46:53.030Z,4.20
2018-04-07T15:49:20.616Z,4.33
2018-04-07T15:51:48.140Z,3.73
2018-04-07T15:54:15.662Z,4.30
2018-04-07T15:56:43.307Z,3.73
2018-04-07T15:59:10.824Z,4.00
2018-04-07T16:01:38.423Z,4.83
2018-04-07T16:04:05.947Z,3.87
2018-04-07T16:06:33.504Z,4.10
2018-04-07T16:09:01.025Z,4.47
2018-04-07T16:11:28.557Z,4.23
2018-04-07T16:13:56.117Z,3.90
2018-04-07T16:16:23.642Z,3.67
2018-04-07T16:18:51.161Z,3.67
2018-04-07T16:21:18.798Z,4.00
2018-04-07T16:23:46.322Z,4.40
2018-04-07T16:26:13.843Z,4.10
2018-04-07T16:28:41.473Z,4.10
2018-04-07T16:31:09.011Z,3.70
2018-04-07T16:33:36.530Z,4.13
2018-04-07T16:36:04.040Z,3.67
2018-04-07T16:38:31.604Z,3.97
2018-04-07T16:40:59.178Z,4.00
2018-04-07T16:43:26.701Z,3.50
2018-04-07T16:45:54.222Z,4.50
2018-04-07T16:48:21.757Z,5.07
2018-04-07T16:50:49.276Z,4.27
2018-04-07T16:53:16.809Z,4.23
2018-04-07T16:55:44.343Z,3.93
2018-04-07T16:58:11.890Z,4.23
2018-04-07T17:00:39.452Z,4.60
2018-04-07T17:03:06.977Z,4.30
2018-04-07T17:05:34.488Z,4.50
2018-04-07T17:08:02.003Z,4.53
2018-04-07T17:10:29.543Z,4.50
2018-04-07T17:12:57.070Z,4.43
2018-04-07T17:15:24.660Z,5.10
2018-04-07T17:17:52.186Z,5.60
2018-04-07T17:20:19.809Z,5.30
2018-04-07T17:22:47.324Z,5.13
2018-04-07T17:25:14.886Z,4.30
2018-04-07T17:27:42.407Z,4.30
2018-04-07T17:30:09.969Z,4.53
2018-04-07T17:32:37.523Z,5.20
2018-04-07T17:35:05.050Z,5.33
2018-04-07T17:37:32.568Z,5.60
2018-04-07T17:40:00.086Z,5.73
2018-04-07T17:42:27.606Z,5.37
2018-04-07T17:44:55.127Z,4.70
2018-04-07T17:47:22.645Z,4.93
2018-04-07T17:49:50.357Z,5.23
2018-04-07T17:52:17.903Z,5.23
2018-04-07T17:54:45.429Z,5.20
2018-04-07T17:57:13.178Z,4.70
2018-04-07T17:59:40.721Z,4.97
2018-04-07T18:02:08.246Z,5.53
2018-04-07T18:04:35.772Z,5.43
2018-04-07T18:07:03.404Z,5.33
2018-04-07T18:09:31.027Z,5.60
2018-04-07T18:11:58.589Z,5.60
2018-04-07T18:14:26.112Z,6.73
2018-04-07T18:16:53.645Z,5.60
2018-04-07T18:19:21.203Z,5.93
2018-04-07T18:21:48.828Z,6.17
2018-04-07T18:24:16.355Z,6.07
2018-04-07T18:26:43.880Z,5.83
2018-04-07T18:29:11.406Z,5.97
2018-04-07T18:31:39.325Z,7.13
2018-04-07T18:34:06.938Z,6.93
2018-04-07T18:36:34.478Z,7.07
2018-04-07T18:39:02.021Z,7.83
2018-04-07T18:41:29.573Z,7.90
2018-04-07T18:43:57.272Z,7.50
2018-04-07T18:46:24.870Z,7.10
2018-04-07T18:48:52.381Z,7.93
2018-04-07T18:51:20.967Z,7.60
2018-04-07T18:53:48.537Z,7.90
2018-04-07T18:56:16.057Z,8.73
2018-04-07T18:58:43.598Z,8.27
2018-04-07T19:01:11.166Z,8.33
2018-04-07T19:03:38.706Z,8.10
2018-04-07T19:06:06.349Z,8.40
2018-04-07T19:08:33.865Z,8.97
2018-04-07T19:11:01.413Z,8.80
2018-04-07T19:13:29.022Z,9.17
2018-04-07T19:15:56.561Z,9.33
2018-04-07T19:18:24.073Z,8.57
2018-04-07T19:20:51.606Z,11.20
2018-04-07T19:23:19.861Z,9.57
2018-04-07T19:25:47.390Z,9.40
2018-04-07T19:28:14.956Z,9.67
2018-04-07T19:30:42.498Z,9.90
2018-04-07T19:33:10.057Z,9.13
2018-04-07T19:35:37.595Z,9.80
2018-04-07T19:38:05.133Z,9.53
2018-04-07T19:40:33.057Z,10.43
2018-04-07T19:43:00.584Z,10.37
2018-04-07T19:45:28.121Z,10.20
2018-04-07T19:47:55.650Z,11.00
2018-04-07T19:50:23.174Z,10.60
2018-04-07T19:52:50.701Z,10.87
2018-04-07T19:55:18.258Z,11.13
2018-04-07T19:57:45.819Z,11.87
2018-04-07T20:00:13.351Z,11.80
2018-04-07T20:02:40.889Z,11.20
2018-04-07T20:05:08.473Z,11.87
2018-04-07T20:07:36.005Z,11.57
2018-04-07T20:10:03.620Z,12.17
2018-04-07T20:12:31.225Z,11.80
2018-04-07T20:14:58.765Z,12.67
2018-04-07T20:17:26.298Z,12.30
2018-04-07T20:19:53.825Z,13.47
2018-04-07T20:22:21.725Z,12.13
2018-04-07T20:24:49.248Z,12.20
2018-04-07T20:27:16.769Z,13.03
2018-04-07T20:29:44.302Z,12.60
2018-04-07T20:32:12.070Z,13.10
2018-04-07T20:34:39.665Z,13.30
2018-04-07T20:37:07.187Z,13.83
2018-04-07T20:39:34.717Z,12.27
2018-04-07T20:42:14.115Z,13.47
2018-04-07T20:44:41.644Z,13.40
2018-04-07T20:47:09.171Z,13.07
2018-04-07T20:49:36.728Z,13.77
2018-04-07T20:52:04.377Z,13.10
2018-04-07T20:54:31.984Z,13.50
2018-04-07T20:56:59.541Z,13.30
2018-04-07T20:59:27.108Z,14.40
2018-04-07T21:01:54.644Z,13.80
2018-04-07T21:04:22.296Z,14.40
2018-04-07T21:06:49.825Z,13.73
2018-04-07T21:09:17.352Z,14.13
2018-04-07T21:11:44.892Z,14.00
2018-04-07T21:14:12.429Z,14.23
2018-04-07T21:16:40.013Z,13.60
2018-04-07T21:19:07.545Z,13.00
2018-04-07T21:21:35.086Z,13.63
2018-04-07T21:24:02.809Z,13.30
2018-04-07T21:26:34.107Z,13.40
2018-04-07T21:29:01.643Z,14.17
2018-04-07T21:31:29.273Z,13.10
2018-04-07T21:33:56.826Z,13.17
2018-04-07T21:36:24.386Z,13.67
2018-04-07T21:38:51.939Z,13.77
2018-04-07T21:41:19.505Z,13.67
2018-04-07T21:43:47.037Z,13.10
2018-04-07T21:46:14.622Z,12.50
2018-04-07T21:48:42.207Z,13.30
2018-04-07T21:51:09.794Z,12.83
2018-04-07T21:53:37.330Z,13.43
2018-04-07T21:56:04.862Z,13.00
2018-04-07T21:58:32.439Z,13.40
2018-04-07T22:00:59.985Z,12.23
2018-04-07T22:03:27.530Z,12.33
2018-04-07T22:05:55.322Z,12.03
2018-04-07T22:08:22.894Z,11.93
2018-04-07T22:10:50.477Z,12.00
2018-04-07T22:13:18.173Z,11.50
2018-04-07T22:15:45.793Z,11.00
2018-04-07T22:18:13.375Z,11.67
2018-04-07T22:20:40.978Z,11.30
2018-04-07T22:23:08.533Z,12.37
2018-04-07T22:25:36.079Z,11.60
2018-04-07T22:28:03.660Z,11.27
2018-04-07T22:30:31.187Z,11.50
2018-04-07T22:32:58.753Z,11.43
2018-04-07T22:35:26.318Z,10.73
2018-04-07T22:37:53.904Z,10.63
2018-04-07T22:40:21.506Z,11.20
2018-04-07T22:42:49.076Z,11.10
2018-04-07T22:45:16.617Z,11.10
2018-04-07T22:47:44.158Z,10.73
2018-04-07T22:50:11.726Z,10.40
2018-04-07T22:52:39.282Z,10.17
2018-04-07T22:55:06.796Z,10.83
2018-04-07T22:57:34.326Z,10.03
2018-04-07T23:00:01.857Z,10.00
2018-04-07T23:02:29.386Z,9.53
2018-04-07T23:04:56.914Z,9.30
2018-04-07T23:07:24.455Z,9.60
2018-04-07T23:09:51.996Z,9.10
2018-04-07T23:12:19.523Z,8.67
2018-04-07T23:14:47.045Z,8.97
2018-04-07T23:17:14.577Z,8.90
2018-04-07T23:19:42.102Z,8.43
2018-04-07T23:22:09.621Z,8.83
2018-04-07T23:24:37.150Z,8.07
2018-04-07T23:27:04.709Z,9.07
2018-04-07T23:29:32.244Z,8.30
2018-04-07T23:31:59.771Z,7.93
2018-04-07T23:34:27.292Z,8.87
2018-04-07T23:36:54.889Z,8.77
2018-04-07T23:39:22.408Z,7.67
2018-04-07T23:41:50.008Z,7.80
2018-04-07T23:44:17.539Z,8.17
2018-04-07T23:46:45.069Z,7.97
2018-04-07T23:49:12.650Z,7.53
2018-04-07T23:51:40.213Z,7.83
2018-04-07T23:54:07.729Z,8.47
2018-04-07T23:56:35.268Z,7.60
2018-04-07T23:59:02.791Z,7.80
